createdAt,value
2017-01-30T00:00:16.517Z,50.50
2017-01-30T00:01:11.756Z,50.40
2017-01-30T00:02:12.815Z,50.50
2017-01-30T00:03:10.932Z,is
2017-01-30T00:04:12.777Z,50.50
2017-01-30T00:05:11.809Z,50.50
2017-01-30T00:06:12.448Z,50.50
2017-01-30T00:07:12.751Z,50.50
2017-01-30T00:08:12.781Z,50.40
2017-01-30T00:09:12.580Z,50.40
2017-01-30T00:10:11.634Z,50.40
2017-01-30T00:11:12.130Z,50.50
2017-01-30T00:12:12.571Z,50.50
2017-01-30T00:13:08.929Z,is
2017-01-30T00:14:12.365Z,50.50
2017-01-30T00:15:12.602Z,50.50
2017-01-30T00:16:12.174Z,50.40
2017-01-30T00:17:12.477Z,50.50
2017-01-30T00:18:11.754Z,50.30
2017-01-30T00:19:13.340Z,50.50
2017-01-30T00:20:12.929Z,50.50
2017-01-30T00:21:13.093Z,50.40
2017-01-30T00:22:12.132Z,50.30
2017-01-30T00:23:14.716Z,50.50
2017-01-30T00:24:12.376Z,50.30
2017-01-30T00:25:11.515Z,50.30
2017-01-30T00:26:11.687Z,50.40
2017-01-30T00:27:10.545Z,is
2017-01-30T00:28:12.545Z,50.30
2017-01-30T00:29:12.197Z,50.40
2017-01-30T00:30:12.310Z,50.30
2017-01-30T00:31:11.980Z,50.40
2017-01-30T00:32:09.964Z,is
2017-01-30T00:33:12.180Z,50.20
2017-01-30T00:34:12.361Z,50.30
2017-01-30T00:35:14.153Z,50.40
2017-01-30T00:36:12.125Z,50.30
2017-01-30T00:37:12.702Z,50.30
2017-01-30T00:38:12.121Z,50.30
2017-01-30T00:39:12.339Z,50.30
2017-01-30T00:40:12.606Z,50.30
2017-01-30T00:41:11.617Z,50.30
2017-01-30T00:42:11.721Z,50.30
2017-01-30T00:43:12.190Z,50.30
2017-01-30T00:44:15.365Z,50.30
2017-01-30T00:45:13.131Z,50.40
2017-01-30T00:46:12.856Z,50.40
2017-01-30T00:47:11.979Z,50.40
2017-01-30T00:48:12.568Z,50.30
2017-01-30T00:49:12.154Z,50.40
2017-01-30T00:50:12.298Z,50.40
2017-01-30T00:51:13.291Z,50.30
2017-01-30T00:52:13.048Z,50.40
2017-01-30T00:53:09.450Z,is
2017-01-30T00:54:14.199Z,50.40
2017-01-30T00:55:12.507Z,50.40
2017-01-30T00:56:11.572Z,50.40
2017-01-30T00:57:11.598Z,50.30
2017-01-30T00:58:14.205Z,50.00
2017-01-30T00:59:13.521Z,50.70
2017-01-30T01:00:12.291Z,50.40
2017-01-30T01:01:12.258Z,50.40
2017-01-30T01:02:12.357Z,50.40
2017-01-30T01:03:12.042Z,50.40
2017-01-30T01:04:12.047Z,50.30
2017-01-30T01:05:15.078Z,50.30
2017-01-30T01:06:12.419Z,50.30
2017-01-30T01:07:12.523Z,50.40
2017-01-30T01:08:12.165Z,50.50
2017-01-30T01:09:13.062Z,50.40
2017-01-30T01:10:12.102Z,50.40
2017-01-30T01:11:12.880Z,50.40
2017-01-30T01:12:11.828Z,50.40
2017-01-30T01:13:11.939Z,50.40
2017-01-30T01:14:11.900Z,50.40
2017-01-30T01:15:12.377Z,50.40
2017-01-30T01:16:12.470Z,50.30
2017-01-30T01:17:12.284Z,50.50
2017-01-30T01:18:13.086Z,50.40
2017-01-30T01:19:12.187Z,50.30
2017-01-30T01:20:12.310Z,50.30
2017-01-30T01:21:14.404Z,50.40
2017-01-30T01:22:13.941Z,50.30
2017-01-30T01:23:12.001Z,50.30
2017-01-30T01:24:12.126Z,50.30
2017-01-30T01:25:12.735Z,50.30
2017-01-30T01:26:15.127Z,50.40
2017-01-30T01:27:12.888Z,50.40
2017-01-30T01:28:12.024Z,50.30
2017-01-30T01:29:12.693Z,50.40
2017-01-30T01:30:13.340Z,50.40
2017-01-30T01:31:13.047Z,50.40
2017-01-30T01:32:12.595Z,50.40
2017-01-30T01:33:12.556Z,50.30
2017-01-30T01:34:11.568Z,50.30
2017-01-30T01:35:12.106Z,50.40
2017-01-30T01:36:12.144Z,50.30
2017-01-30T01:37:13.357Z,50.40
2017-01-30T01:38:12.457Z,50.30
2017-01-30T01:39:12.262Z,50.40
2017-01-30T01:40:12.373Z,50.30
2017-01-30T01:41:11.654Z,50.20
2017-01-30T01:42:12.947Z,50.30
2017-01-30T01:43:12.033Z,50.30
2017-01-30T01:44:12.747Z,50.40
2017-01-30T01:45:11.713Z,50.40
2017-01-30T01:46:11.826Z,50.40
2017-01-30T01:47:16.080Z,50.30
2017-01-30T01:48:13.611Z,50.30
2017-01-30T01:49:12.028Z,50.20
2017-01-30T01:50:12.919Z,50.30
2017-01-30T01:51:12.253Z,50.20
2017-01-30T01:52:12.880Z,50.30
2017-01-30T01:53:12.071Z,50.70
2017-01-30T01:54:12.822Z,50.20
2017-01-30T01:55:12.125Z,50.20
2017-01-30T01:56:13.006Z,50.30
2017-01-30T01:57:12.070Z,50.20
2017-01-30T01:58:12.079Z,50.20
2017-01-30T01:59:12.286Z,50.20
2017-01-30T02:00:12.509Z,50.30
2017-01-30T02:01:11.666Z,50.30
2017-01-30T02:02:12.071Z,50.30
2017-01-30T02:03:12.169Z,50.30
2017-01-30T02:04:12.245Z,50.30
2017-01-30T02:05:13.144Z,50.30
2017-01-30T02:06:10.272Z,is
2017-01-30T02:07:12.839Z,50.30
2017-01-30T02:08:15.206Z,50.30
2017-01-30T02:09:12.794Z,50.70
2017-01-30T02:10:12.449Z,50.30
2017-01-30T02:11:11.708Z,50.20
2017-01-30T02:12:09.730Z,is
2017-01-30T02:13:12.928Z,50.20
2017-01-30T02:14:13.608Z,50.20
2017-01-30T02:15:12.617Z,50.20
2017-01-30T02:16:12.927Z,50.30
2017-01-30T02:17:12.661Z,50.20
2017-01-30T02:18:13.562Z,50.30
2017-01-30T02:19:11.666Z,50.20
2017-01-30T02:20:10.439Z,is
2017-01-30T02:21:12.657Z,50.20
2017-01-30T02:22:11.885Z,50.30
2017-01-30T02:23:11.005Z,is
2017-01-30T02:24:13.135Z,50.20
2017-01-30T02:25:12.619Z,50.30
2017-01-30T02:26:11.857Z,50.30
2017-01-30T02:27:12.865Z,50.20
2017-01-30T02:28:12.062Z,50.20
2017-01-30T02:29:15.210Z,50.40
2017-01-30T02:30:12.882Z,50.30
2017-01-30T02:31:12.254Z,50.20
2017-01-30T02:32:12.361Z,50.20
2017-01-30T02:33:11.400Z,is
2017-01-30T02:34:11.691Z,50.20
2017-01-30T02:35:11.813Z,50.30
2017-01-30T02:36:12.486Z,50.30
2017-01-30T02:37:11.809Z,50.20
2017-01-30T02:38:11.850Z,50.30
2017-01-30T02:39:12.671Z,50.30
2017-01-30T02:40:11.831Z,50.30
2017-01-30T02:41:12.428Z,50.30
2017-01-30T02:42:11.463Z,50.20
2017-01-30T02:43:11.782Z,50.20
2017-01-30T02:44:12.478Z,50.20
2017-01-30T02:45:13.740Z,50.30
2017-01-30T02:46:12.239Z,50.20
2017-01-30T02:47:14.306Z,50.30
2017-01-30T02:48:10.640Z,is
2017-01-30T02:49:12.170Z,50.20
2017-01-30T02:50:13.178Z,is
2017-01-30T02:51:11.856Z,50.20
2017-01-30T02:52:12.508Z,50.20
2017-01-30T02:53:12.733Z,50.30
2017-01-30T02:54:11.932Z,50.20
2017-01-30T02:55:12.241Z,50.20
2017-01-30T02:56:13.262Z,50.30
2017-01-30T02:57:13.852Z,50.20
2017-01-30T02:58:09.061Z,is
2017-01-30T02:59:13.357Z,50.20
2017-01-30T03:00:15.681Z,50.20
2017-01-30T03:01:11.790Z,50.30
2017-01-30T03:02:12.423Z,50.30
2017-01-30T03:03:11.677Z,50.20
2017-01-30T03:04:11.967Z,50.20
2017-01-30T03:05:13.101Z,50.30
2017-01-30T03:06:13.531Z,50.30
2017-01-30T03:07:13.715Z,50.30
2017-01-30T03:08:11.970Z,50.30
2017-01-30T03:09:12.762Z,50.20
2017-01-30T03:10:11.990Z,50.30
2017-01-30T03:11:14.943Z,50.20
2017-01-30T03:12:10.636Z,is
2017-01-30T03:13:12.003Z,50.20
2017-01-30T03:14:12.572Z,50.90
2017-01-30T03:15:11.920Z,50.20
2017-01-30T03:16:12.088Z,50.20
2017-01-30T03:17:12.309Z,50.20
2017-01-30T03:18:12.500Z,50.20
2017-01-30T03:19:10.388Z,is
2017-01-30T03:20:14.433Z,50.20
2017-01-30T03:21:11.551Z,50.20
2017-01-30T03:22:11.713Z,50.20
2017-01-30T03:23:13.554Z,50.20
2017-01-30T03:24:10.657Z,is
2017-01-30T03:25:12.184Z,50.10
2017-01-30T03:26:13.026Z,50.30
2017-01-30T03:27:12.190Z,50.20
2017-01-30T03:28:12.508Z,50.20
2017-01-30T03:29:11.680Z,50.10
2017-01-30T03:30:11.976Z,50.20
2017-01-30T03:31:12.735Z,50.20
2017-01-30T03:32:14.778Z,50.20
2017-01-30T03:33:12.221Z,50.20
2017-01-30T03:34:13.017Z,50.20
2017-01-30T03:35:12.519Z,50.30
2017-01-30T03:36:11.802Z,50.20
2017-01-30T03:37:12.936Z,50.20
2017-01-30T03:38:12.812Z,50.20
2017-01-30T03:39:12.799Z,50.20
2017-01-30T03:40:13.176Z,50.20
2017-01-30T03:41:09.614Z,is
2017-01-30T03:42:10.839Z,is
2017-01-30T03:43:10.756Z,is
2017-01-30T03:44:12.474Z,50.20
2017-01-30T03:45:11.841Z,50.10
2017-01-30T03:46:12.524Z,50.20
2017-01-30T03:47:11.640Z,50.20
2017-01-30T03:48:12.466Z,50.20
2017-01-30T03:49:12.263Z,50.20
2017-01-30T03:50:10.466Z,is
2017-01-30T03:51:14.618Z,50.20
2017-01-30T03:52:13.992Z,50.20
2017-01-30T03:53:13.253Z,50.20
2017-01-30T03:54:12.816Z,50.20
2017-01-30T03:55:12.374Z,50.20
2017-01-30T03:56:12.208Z,50.20
2017-01-30T03:57:12.755Z,50.10
2017-01-30T03:58:11.969Z,50.20
2017-01-30T03:59:12.333Z,50.20
2017-01-30T04:00:12.450Z,50.20
2017-01-30T04:01:11.662Z,50.10
2017-01-30T04:02:11.797Z,50.20
2017-01-30T04:03:12.537Z,50.10
2017-01-30T04:04:12.270Z,50.20
2017-01-30T04:05:14.603Z,50.20
2017-01-30T04:06:11.720Z,50.20
2017-01-30T04:07:12.450Z,50.20
2017-01-30T04:08:11.551Z,50.10
2017-01-30T04:09:12.555Z,50.20
2017-01-30T04:10:13.522Z,50.20
2017-01-30T04:11:12.570Z,50.20
2017-01-30T04:12:12.934Z,50.20
2017-01-30T04:13:12.670Z,50.20
2017-01-30T04:14:12.988Z,50.20
2017-01-30T04:15:12.297Z,50.10
2017-01-30T04:16:14.451Z,50.20
2017-01-30T04:17:12.307Z,50.20
2017-01-30T04:18:12.406Z,50.20
2017-01-30T04:19:11.703Z,50.20
2017-01-30T04:20:14.229Z,50.20
2017-01-30T04:21:13.599Z,50.20
2017-01-30T04:22:12.958Z,50.20
2017-01-30T04:23:12.499Z,50.20
2017-01-30T04:24:13.196Z,50.20
2017-01-30T04:25:12.809Z,50.20
2017-01-30T04:26:12.406Z,50.20
2017-01-30T04:27:11.466Z,50.20
2017-01-30T04:28:12.088Z,50.20
2017-01-30T04:29:13.643Z,50.20
2017-01-30T04:30:12.097Z,50.20
2017-01-30T04:31:14.846Z,50.30
2017-01-30T04:32:12.858Z,50.20
2017-01-30T04:33:12.846Z,50.20
2017-01-30T04:34:11.961Z,50.20
2017-01-30T04:35:12.057Z,50.20
2017-01-30T04:36:12.824Z,50.20
2017-01-30T04:37:12.883Z,50.20
2017-01-30T04:38:11.846Z,50.10
2017-01-30T04:39:11.938Z,50.20
2017-01-30T04:40:12.262Z,50.10
2017-01-30T04:41:13.157Z,50.20
2017-01-30T04:42:13.359Z,50.20
2017-01-30T04:43:12.520Z,50.20
2017-01-30T04:44:11.639Z,50.20
2017-01-30T04:45:12.577Z,50.20
2017-01-30T04:46:10.492Z,is
2017-01-30T04:47:12.651Z,50.20
2017-01-30T04:48:15.269Z,49.30
2017-01-30T04:49:12.376Z,50.20
2017-01-30T04:50:13.611Z,50.20
2017-01-30T04:51:12.152Z,50.10
2017-01-30T04:52:14.098Z,50.20
2017-01-30T04:53:12.736Z,50.20
2017-01-30T04:54:09.152Z,is
2017-01-30T04:55:12.735Z,50.30
2017-01-30T04:56:12.554Z,50.10
2017-01-30T04:57:12.429Z,50.10
2017-01-30T04:58:13.533Z,50.20
2017-01-30T04:59:13.010Z,50.10
2017-01-30T05:00:12.410Z,50.20
2017-01-30T05:01:11.639Z,50.10
2017-01-30T05:02:12.404Z,50.10
2017-01-30T05:03:14.250Z,50.20
2017-01-30T05:04:12.548Z,50.20
2017-01-30T05:05:12.245Z,50.20
2017-01-30T05:06:13.941Z,50.10
2017-01-30T05:07:16.620Z,50.10
2017-01-30T05:08:12.841Z,50.20
2017-01-30T05:09:12.421Z,50.20
2017-01-30T05:10:09.136Z,is
2017-01-30T05:11:13.101Z,50.20
2017-01-30T05:12:12.678Z,50.10
2017-01-30T05:13:12.004Z,50.10
2017-01-30T05:14:12.165Z,50.20
2017-01-30T05:15:13.144Z,50.10
2017-01-30T05:16:13.065Z,50.00
2017-01-30T05:17:12.860Z,50.50
2017-01-30T05:18:12.897Z,50.10
2017-01-30T05:19:13.672Z,50.10
2017-01-30T05:20:14.697Z,50.10
2017-01-30T05:21:09.834Z,is
2017-01-30T05:22:12.107Z,50.10
2017-01-30T05:23:12.268Z,50.20
2017-01-30T05:24:11.864Z,is
2017-01-30T05:25:16.047Z,50.20
2017-01-30T05:26:15.642Z,50.10
2017-01-30T05:27:12.505Z,50.10
2017-01-30T05:28:12.181Z,50.10
2017-01-30T05:29:14.341Z,50.20
2017-01-30T05:30:13.463Z,50.20
2017-01-30T05:31:09.649Z,is
2017-01-30T05:32:11.856Z,50.20
2017-01-30T05:33:12.537Z,50.20
2017-01-30T05:34:12.465Z,50.20
2017-01-30T05:35:12.234Z,50.20
2017-01-30T05:36:14.098Z,49.50
2017-01-30T05:37:12.929Z,50.10
2017-01-30T05:38:12.114Z,50.20
2017-01-30T05:39:12.797Z,50.20
2017-01-30T05:40:11.961Z,50.20
2017-01-30T05:41:12.706Z,50.20
2017-01-30T05:42:13.488Z,50.20
2017-01-30T05:43:15.658Z,50.20
2017-01-30T05:44:12.106Z,50.10
2017-01-30T05:45:13.156Z,50.10
2017-01-30T05:46:12.334Z,50.20
2017-01-30T05:47:15.027Z,50.20
2017-01-30T05:48:12.904Z,50.10
2017-01-30T05:49:12.018Z,50.20
2017-01-30T05:50:14.077Z,50.20
2017-01-30T05:51:10.073Z,is
2017-01-30T05:52:11.597Z,50.10
2017-01-30T05:53:13.519Z,50.20
2017-01-30T05:54:12.025Z,50.10
2017-01-30T05:55:13.632Z,50.20
2017-01-30T05:56:13.398Z,49.60
2017-01-30T05:57:13.435Z,48.40
2017-01-30T05:58:11.624Z,47.80
2017-01-30T05:59:13.227Z,47.60
2017-01-30T06:00:14.807Z,49.10
2017-01-30T06:01:15.971Z,50.30
2017-01-30T06:02:14.284Z,49.00
2017-01-30T06:03:12.576Z,48.00
2017-01-30T06:04:10.538Z,is
2017-01-30T06:05:12.211Z,47.80
2017-01-30T06:06:10.579Z,is
2017-01-30T06:07:12.866Z,49.30
2017-01-30T06:08:12.008Z,49.80
2017-01-30T06:09:14.709Z,49.80
2017-01-30T06:10:12.867Z,49.90
2017-01-30T06:11:11.959Z,49.70
2017-01-30T06:12:12.661Z,49.60
2017-01-30T06:13:13.096Z,49.70
2017-01-30T06:14:12.818Z,49.60
2017-01-30T06:15:12.835Z,49.50
2017-01-30T06:16:12.080Z,49.40
2017-01-30T06:17:12.902Z,49.30
2017-01-30T06:18:12.097Z,49.30
2017-01-30T06:19:16.897Z,49.30
2017-01-30T06:20:11.027Z,is
2017-01-30T06:21:12.608Z,49.20
2017-01-30T06:22:12.376Z,49.40
2017-01-30T06:23:11.851Z,49.20
2017-01-30T06:24:12.507Z,49.20
2017-01-30T06:25:12.172Z,49.10
2017-01-30T06:26:12.343Z,49.10
2017-01-30T06:27:12.919Z,49.00
2017-01-30T06:28:12.071Z,49.10
2017-01-30T06:29:16.136Z,49.10
2017-01-30T06:30:12.948Z,49.20
2017-01-30T06:31:12.250Z,49.20
2017-01-30T06:32:13.706Z,49.20
2017-01-30T06:33:12.447Z,49.20
2017-01-30T06:34:09.439Z,is
2017-01-30T06:35:12.510Z,49.30
2017-01-30T06:36:14.772Z,49.20
2017-01-30T06:37:12.407Z,49.20
2017-01-30T06:38:12.362Z,49.30
2017-01-30T06:39:12.546Z,49.30
2017-01-30T06:40:15.349Z,49.20
2017-01-30T06:41:14.355Z,49.40
2017-01-30T06:42:13.479Z,48.60
2017-01-30T06:43:12.495Z,49.50
2017-01-30T06:44:12.588Z,49.50
2017-01-30T06:45:11.763Z,49.40
2017-01-30T06:46:12.523Z,49.50
2017-01-30T06:47:11.729Z,49.30
2017-01-30T06:48:12.758Z,49.50
2017-01-30T06:49:11.997Z,49.40
2017-01-30T06:50:12.188Z,49.50
2017-01-30T06:51:12.428Z,49.40
2017-01-30T06:52:12.023Z,49.60
2017-01-30T06:53:15.012Z,49.60
2017-01-30T06:54:10.795Z,is
2017-01-30T06:55:13.266Z,49.50
2017-01-30T06:56:13.044Z,49.70
2017-01-30T06:57:15.677Z,49.70
2017-01-30T06:58:12.433Z,49.70
2017-01-30T06:59:12.297Z,49.70
2017-01-30T07:00:13.186Z,49.70
2017-01-30T07:01:14.284Z,49.70
2017-01-30T07:02:10.847Z,is
2017-01-30T07:03:12.991Z,49.80
2017-01-30T07:04:12.147Z,49.80
2017-01-30T07:05:13.116Z,49.80
2017-01-30T07:06:12.090Z,49.70
2017-01-30T07:07:12.869Z,49.80
2017-01-30T07:08:12.647Z,49.70
2017-01-30T07:09:12.519Z,49.80
2017-01-30T07:10:14.564Z,49.80
2017-01-30T07:11:12.517Z,49.90
2017-01-30T07:12:11.763Z,49.80
2017-01-30T07:13:13.742Z,49.80
2017-01-30T07:14:12.020Z,49.80
2017-01-30T07:15:12.236Z,49.80
2017-01-30T07:16:13.169Z,49.90
2017-01-30T07:17:12.938Z,49.90
2017-01-30T07:18:10.679Z,is
2017-01-30T07:19:11.994Z,49.80
2017-01-30T07:20:12.518Z,49.90
2017-01-30T07:21:11.678Z,49.80
2017-01-30T07:22:12.757Z,49.90
2017-01-30T07:23:12.265Z,49.90
2017-01-30T07:24:10.926Z,is
2017-01-30T07:25:11.592Z,49.90
2017-01-30T07:26:12.614Z,49.90
2017-01-30T07:27:13.401Z,49.90
2017-01-30T07:28:13.122Z,50.00
2017-01-30T07:29:14.626Z,49.90
2017-01-30T07:30:12.888Z,50.00
2017-01-30T07:31:12.609Z,50.10
2017-01-30T07:32:11.893Z,49.90
2017-01-30T07:33:12.264Z,49.90
2017-01-30T07:34:12.931Z,50.00
2017-01-30T07:35:13.246Z,50.10
2017-01-30T07:36:13.081Z,50.00
2017-01-30T07:37:12.526Z,50.00
2017-01-30T07:38:11.651Z,50.10
2017-01-30T07:39:11.984Z,50.10
2017-01-30T07:40:12.557Z,50.00
2017-01-30T07:41:10.230Z,is
2017-01-30T07:42:11.764Z,49.90
2017-01-30T07:43:12.586Z,50.20
2017-01-30T07:44:12.728Z,50.10
2017-01-30T07:45:12.810Z,50.00
2017-01-30T07:46:15.749Z,50.10
2017-01-30T07:47:12.712Z,50.10
2017-01-30T07:48:11.927Z,is
2017-01-30T07:49:12.499Z,50.00
2017-01-30T07:50:12.705Z,50.20
2017-01-30T07:51:12.442Z,50.20
2017-01-30T07:52:11.641Z,50.10
2017-01-30T07:53:12.417Z,50.20
2017-01-30T07:54:11.715Z,50.10
2017-01-30T07:55:12.651Z,50.10
2017-01-30T07:56:11.973Z,50.00
2017-01-30T07:57:12.557Z,50.00
2017-01-30T07:58:11.851Z,50.00
2017-01-30T07:59:10.429Z,is
2017-01-30T08:00:12.284Z,50.10
2017-01-30T08:01:12.456Z,50.00
2017-01-30T08:02:12.254Z,50.10
2017-01-30T08:03:15.637Z,50.20
2017-01-30T08:04:10.028Z,is
2017-01-30T08:05:12.592Z,50.00
2017-01-30T08:06:10.690Z,is
2017-01-30T08:07:12.181Z,50.10
2017-01-30T08:08:12.882Z,50.10
2017-01-30T08:09:12.646Z,50.20
2017-01-30T08:10:11.917Z,50.10
2017-01-30T08:11:12.029Z,50.20
2017-01-30T08:12:12.296Z,50.10
2017-01-30T08:13:13.036Z,50.10
2017-01-30T08:14:12.850Z,50.20
2017-01-30T08:15:13.657Z,50.20
2017-01-30T08:16:12.357Z,50.10
2017-01-30T08:17:14.602Z,50.10
2017-01-30T08:18:15.006Z,50.20
2017-01-30T08:19:12.231Z,50.10
2017-01-30T08:20:14.996Z,50.20
2017-01-30T08:21:12.567Z,50.10
2017-01-30T08:22:12.121Z,50.10
2017-01-30T08:23:11.035Z,is
2017-01-30T08:24:14.095Z,50.10
2017-01-30T08:25:12.317Z,50.20
2017-01-30T08:26:13.178Z,50.10
2017-01-30T08:27:13.196Z,50.10
2017-01-30T08:28:13.069Z,50.70
2017-01-30T08:29:12.268Z,50.20
2017-01-30T08:30:12.412Z,50.00
2017-01-30T08:31:11.643Z,50.10
2017-01-30T08:32:12.826Z,50.10
2017-01-30T08:33:11.924Z,50.00
2017-01-30T08:34:12.038Z,50.10
2017-01-30T08:35:14.265Z,50.10
2017-01-30T08:36:11.742Z,50.10
2017-01-30T08:37:13.894Z,50.10
2017-01-30T08:38:12.529Z,50.10
2017-01-30T08:39:11.642Z,50.10
2017-01-30T08:40:11.870Z,50.00
2017-01-30T08:41:12.870Z,50.10
2017-01-30T08:42:12.013Z,50.10
2017-01-30T08:43:13.792Z,50.10
2017-01-30T08:44:11.971Z,50.10
2017-01-30T08:45:12.763Z,50.00
2017-01-30T08:46:12.296Z,50.10
2017-01-30T08:47:10.763Z,is
2017-01-30T08:48:12.511Z,50.00
2017-01-30T08:49:10.677Z,is
2017-01-30T08:50:13.267Z,50.10
2017-01-30T08:51:10.522Z,is
2017-01-30T08:52:14.689Z,50.10
2017-01-30T08:53:12.549Z,50.10
2017-01-30T08:54:10.537Z,is
2017-01-30T08:55:11.576Z,50.00
2017-01-30T08:56:11.712Z,50.10
2017-01-30T08:57:12.516Z,50.10
2017-01-30T08:58:11.648Z,50.10
2017-01-30T08:59:12.451Z,50.20
2017-01-30T09:00:11.706Z,50.00
2017-01-30T09:01:12.676Z,50.20
2017-01-30T09:02:11.870Z,50.00
2017-01-30T09:03:12.578Z,50.00
2017-01-30T09:04:11.761Z,50.10
2017-01-30T09:05:11.825Z,50.20
2017-01-30T09:06:13.642Z,50.10
2017-01-30T09:07:12.378Z,50.20
2017-01-30T09:08:12.148Z,50.20
2017-01-30T09:09:15.275Z,50.10
2017-01-30T09:10:12.672Z,50.10
2017-01-30T09:11:14.317Z,50.20
2017-01-30T09:12:13.667Z,50.20
2017-01-30T09:13:12.379Z,50.00
2017-01-30T09:14:12.555Z,50.20
2017-01-30T09:15:12.588Z,50.30
2017-01-30T09:16:13.507Z,50.20
2017-01-30T09:17:11.727Z,50.10
2017-01-30T09:18:11.800Z,50.10
2017-01-30T09:19:11.897Z,50.10
2017-01-30T09:20:12.625Z,50.10
2017-01-30T09:21:12.177Z,50.20
2017-01-30T09:22:12.240Z,50.00
2017-01-30T09:23:12.505Z,50.20
2017-01-30T09:24:09.197Z,is
2017-01-30T09:25:12.935Z,50.10
2017-01-30T09:26:16.041Z,50.20
2017-01-30T09:27:12.140Z,50.00
2017-01-30T09:28:12.855Z,50.20
2017-01-30T09:29:12.604Z,50.20
2017-01-30T09:30:11.837Z,50.10
2017-01-30T09:31:12.033Z,50.20
2017-01-30T09:32:15.431Z,50.20
2017-01-30T09:33:11.655Z,50.10
2017-01-30T09:34:13.439Z,50.10
2017-01-30T09:35:12.404Z,50.10
2017-01-30T09:36:12.227Z,50.10
2017-01-30T09:37:12.987Z,50.00
2017-01-30T09:38:12.687Z,50.10
2017-01-30T09:39:11.859Z,50.10
2017-01-30T09:40:12.559Z,50.10
2017-01-30T09:41:10.444Z,is
2017-01-30T09:42:12.826Z,50.20
2017-01-30T09:43:12.552Z,is
2017-01-30T09:44:13.183Z,50.10
2017-01-30T09:45:10.928Z,is
2017-01-30T09:46:13.366Z,50.10
2017-01-30T09:47:11.475Z,is
2017-01-30T09:48:11.859Z,50.00
2017-01-30T09:49:12.024Z,50.00
2017-01-30T09:50:12.588Z,50.10
2017-01-30T09:51:12.444Z,50.10
2017-01-30T09:52:10.486Z,is
2017-01-30T09:53:15.408Z,50.10
2017-01-30T09:54:11.660Z,50.00
2017-01-30T09:55:11.868Z,50.20
2017-01-30T09:56:12.680Z,50.00
2017-01-30T09:57:10.646Z,is
2017-01-30T09:58:16.659Z,50.20
2017-01-30T09:59:12.728Z,50.10
2017-01-30T10:00:11.909Z,50.00
2017-01-30T10:01:12.295Z,50.00
2017-01-30T10:02:13.095Z,50.30
2017-01-30T10:03:09.687Z,is
2017-01-30T10:04:09.995Z,is
2017-01-30T10:05:12.356Z,50.00
2017-01-30T10:06:12.991Z,50.10
2017-01-30T10:07:12.193Z,50.10
2017-01-30T10:08:13.569Z,50.10
2017-01-30T10:09:11.532Z,50.00
2017-01-30T10:10:12.473Z,49.90
2017-01-30T10:11:11.453Z,50.00
2017-01-30T10:12:11.821Z,50.00
2017-01-30T10:13:15.336Z,50.10
2017-01-30T10:14:13.370Z,50.00
2017-01-30T10:15:12.642Z,50.00
2017-01-30T10:16:12.502Z,49.80
2017-01-30T10:17:12.826Z,50.00
2017-01-30T10:18:12.050Z,49.90
2017-01-30T10:19:12.711Z,50.00
2017-01-30T10:20:11.957Z,50.10
2017-01-30T10:21:12.849Z,50.20
2017-01-30T10:22:12.486Z,50.10
2017-01-30T10:23:12.146Z,50.00
2017-01-30T10:24:14.056Z,50.10
2017-01-30T10:25:12.989Z,50.00
2017-01-30T10:26:12.719Z,50.00
2017-01-30T10:27:12.493Z,50.10
2017-01-30T10:28:12.365Z,50.10
2017-01-30T10:29:13.121Z,50.00
2017-01-30T10:30:15.427Z,50.00
2017-01-30T10:31:12.037Z,50.00
2017-01-30T10:32:12.185Z,49.90
2017-01-30T10:33:12.291Z,50.00
2017-01-30T10:34:15.058Z,50.00
2017-01-30T10:35:12.416Z,50.00
2017-01-30T10:36:11.647Z,50.00
2017-01-30T10:37:12.365Z,50.20
2017-01-30T10:38:12.535Z,49.90
2017-01-30T10:39:11.788Z,49.90
2017-01-30T10:40:12.600Z,49.90
2017-01-30T10:41:11.568Z,49.90
2017-01-30T10:42:11.766Z,49.90
2017-01-30T10:43:12.406Z,49.90
2017-01-30T10:44:13.310Z,50.00
2017-01-30T10:45:15.621Z,49.90
2017-01-30T10:46:12.779Z,49.80
2017-01-30T10:47:12.841Z,49.80
2017-01-30T10:48:12.748Z,49.80
2017-01-30T10:49:11.936Z,49.90
2017-01-30T10:50:12.829Z,49.90
2017-01-30T10:51:13.709Z,49.80
2017-01-30T10:52:11.806Z,49.80
2017-01-30T10:53:12.076Z,49.70
2017-01-30T10:54:12.100Z,49.80
2017-01-30T10:55:12.374Z,49.80
2017-01-30T10:56:13.200Z,50.00
2017-01-30T10:57:10.278Z,is
2017-01-30T10:58:12.550Z,49.90
2017-01-30T10:59:11.985Z,49.90
2017-01-30T11:00:15.831Z,50.00
2017-01-30T11:01:12.872Z,50.00
2017-01-30T11:02:13.794Z,50.00
2017-01-30T11:03:14.936Z,49.90
2017-01-30T11:04:12.555Z,50.00
2017-01-30T11:05:11.722Z,49.90
2017-01-30T11:06:13.607Z,50.00
2017-01-30T11:07:10.665Z,is
2017-01-30T11:08:12.211Z,49.90
2017-01-30T11:09:12.284Z,49.90
2017-01-30T11:10:12.647Z,49.90
2017-01-30T11:11:12.875Z,49.90
2017-01-30T11:12:13.100Z,50.00
2017-01-30T11:13:12.127Z,49.90
2017-01-30T11:14:14.787Z,49.90
2017-01-30T11:15:15.655Z,49.90
2017-01-30T11:16:12.580Z,49.80
2017-01-30T11:17:14.092Z,49.90
2017-01-30T11:18:13.110Z,49.90
2017-01-30T11:19:12.440Z,49.90
2017-01-30T11:20:11.950Z,50.00
2017-01-30T11:21:12.794Z,50.00
2017-01-30T11:22:12.484Z,49.90
2017-01-30T11:23:13.732Z,49.90
2017-01-30T11:24:11.716Z,50.00
2017-01-30T11:25:12.318Z,50.00
2017-01-30T11:26:13.177Z,49.80
2017-01-30T11:27:12.330Z,50.00
2017-01-30T11:28:12.470Z,49.80
2017-01-30T11:29:12.506Z,49.80
2017-01-30T11:30:12.678Z,50.00
2017-01-30T11:31:12.319Z,50.00
2017-01-30T11:32:15.665Z,49.90
2017-01-30T11:33:13.023Z,49.90
2017-01-30T11:34:13.318Z,49.80
2017-01-30T11:35:14.227Z,50.00
2017-01-30T11:36:12.344Z,49.90
2017-01-30T11:37:13.009Z,49.90
2017-01-30T11:38:12.301Z,49.80
2017-01-30T11:39:14.205Z,49.90
2017-01-30T11:40:12.915Z,49.90
2017-01-30T11:41:12.211Z,49.90
2017-01-30T11:42:14.075Z,49.90
2017-01-30T11:43:12.172Z,50.00
2017-01-30T11:44:12.343Z,49.80
2017-01-30T11:45:13.186Z,49.90
2017-01-30T11:46:12.345Z,49.80
2017-01-30T11:47:15.399Z,49.90
2017-01-30T11:48:12.363Z,49.30
2017-01-30T11:49:12.681Z,49.90
2017-01-30T11:50:12.505Z,49.90
2017-01-30T11:51:11.688Z,49.90
2017-01-30T11:52:12.299Z,49.90
2017-01-30T11:53:12.991Z,50.00
2017-01-30T11:54:13.745Z,50.00
2017-01-30T11:55:11.867Z,49.90
2017-01-30T11:56:12.658Z,50.00
2017-01-30T11:57:12.411Z,49.90
2017-01-30T11:58:12.145Z,49.90
2017-01-30T11:59:10.928Z,is
2017-01-30T12:00:12.909Z,49.90
2017-01-30T12:01:14.274Z,50.00
2017-01-30T12:02:15.415Z,50.00
2017-01-30T12:03:14.407Z,49.90
2017-01-30T12:04:12.225Z,50.00
2017-01-30T12:05:12.445Z,50.00
2017-01-30T12:06:11.587Z,50.00
2017-01-30T12:07:12.256Z,49.90
2017-01-30T12:08:12.905Z,50.00
2017-01-30T12:09:12.702Z,50.00
2017-01-30T12:10:13.000Z,50.00
2017-01-30T12:11:12.285Z,49.80
2017-01-30T12:12:13.725Z,50.00
2017-01-30T12:13:11.850Z,49.90
2017-01-30T12:14:12.124Z,50.00
2017-01-30T12:15:13.059Z,49.90
2017-01-30T12:16:13.240Z,49.90
2017-01-30T12:17:15.696Z,50.10
2017-01-30T12:18:12.643Z,50.00
2017-01-30T12:19:11.849Z,50.00
2017-01-30T12:20:12.649Z,49.90
2017-01-30T12:21:12.043Z,49.90
2017-01-30T12:22:12.860Z,50.00
2017-01-30T12:23:13.471Z,50.00
2017-01-30T12:24:13.221Z,50.00
2017-01-30T12:25:12.949Z,49.90
2017-01-30T12:26:12.124Z,50.00
2017-01-30T12:27:13.374Z,49.90
2017-01-30T12:28:13.655Z,50.00
2017-01-30T12:29:13.207Z,50.00
2017-01-30T12:30:12.921Z,50.00
2017-01-30T12:31:12.149Z,49.90
2017-01-30T12:32:15.943Z,49.90
2017-01-30T12:33:12.420Z,49.90
2017-01-30T12:34:08.887Z,is
2017-01-30T12:35:10.505Z,is
2017-01-30T12:36:11.737Z,49.80
2017-01-30T12:37:11.959Z,49.90
2017-01-30T12:38:11.948Z,49.90
2017-01-30T12:39:15.123Z,50.00
2017-01-30T12:40:12.808Z,49.90
2017-01-30T12:41:12.065Z,49.90
2017-01-30T12:42:12.515Z,49.90
2017-01-30T12:43:11.690Z,49.90
2017-01-30T12:44:12.870Z,50.00
2017-01-30T12:45:12.135Z,49.90
2017-01-30T12:46:12.704Z,50.10
2017-01-30T12:47:14.850Z,50.00
2017-01-30T12:48:12.339Z,49.90
2017-01-30T12:49:12.694Z,49.90
2017-01-30T12:50:14.459Z,50.00
2017-01-30T12:51:13.076Z,49.90
2017-01-30T12:52:12.325Z,49.90
2017-01-30T12:53:13.146Z,49.80
2017-01-30T12:54:12.318Z,49.90
2017-01-30T12:55:12.981Z,50.00
2017-01-30T12:56:12.190Z,49.90
2017-01-30T12:57:12.768Z,50.00
2017-01-30T12:58:12.580Z,49.90